sensor_id;sensor_type;location;lat;lon;timestamp;P1;durP1;ratioP1;P2;durP2;ratioP2
21251;SDS011;10784;50.578;17.878;2023-01-09T00:00:30;14.35;;;5.95;;
21251;SDS011;10784;50.578;17.878;2023-01-09T00:03:23;11.25;;;4.50;;
21251;SDS011;10784;50.578;17.878;2023-01-09T00:05:56;15.20;;;5.47;;
21251;SDS011;10784;50.578;17.878;2023-01-09T00:08:29;14.20;;;5.85;;
21251;SDS011;10784;50.578;17.878;2023-01-09T00:11:01;9.25;;;4.57;;
21251;SDS011;10784;50.578;17.878;2023-01-09T00:13:34;15.07;;;5.10;;
21251;SDS011;10784;50.578;17.878;2023-01-09T00:16:07;8.38;;;4.35;;
21251;SDS011;10784;50.578;17.878;2023-01-09T00:18:40;17.08;;;6.57;;
21251;SDS011;10784;50.578;17.878;2023-01-09T00:21:13;17.48;;;5.47;;
21251;SDS011;10784;50.578;17.878;2023-01-09T00:23:47;9.07;;;4.38;;
21251;SDS011;10784;50.578;17.878;2023-01-09T00:26:20;7.90;;;4.10;;
21251;SDS011;10784;50.578;17.878;2023-01-09T00:28:53;9.13;;;5.63;;
21251;SDS011;10784;50.578;17.878;2023-01-09T00:31:26;12.73;;;5.03;;
21251;SDS011;10784;50.578;17.878;2023-01-09T00:36:32;18.00;;;5.35;;
21251;SDS011;10784;50.578;17.878;2023-01-09T00:39:05;14.40;;;4.68;;
21251;SDS011;10784;50.578;17.878;2023-01-09T00:41:42;12.63;;;5.30;;
21251;SDS011;10784;50.578;17.878;2023-01-09T00:46:50;19.95;;;5.20;;
21251;SDS011;10784;50.578;17.878;2023-01-09T00:49:23;18.00;;;5.43;;
21251;SDS011;10784;50.578;17.878;2023-01-09T00:51:56;19.10;;;6.13;;
21251;SDS011;10784;50.578;17.878;2023-01-09T00:54:30;17.75;;;5.97;;
21251;SDS011;10784;50.578;17.878;2023-01-09T00:57:03;14.70;;;4.95;;
21251;SDS011;10784;50.578;17.878;2023-01-09T00:59:37;16.13;;;5.22;;
21251;SDS011;10784;50.578;17.878;2023-01-09T01:02:09;15.38;;;5.55;;
21251;SDS011;10784;50.578;17.878;2023-01-09T01:04:43;12.85;;;6.13;;
21251;SDS011;10784;50.578;17.878;2023-01-09T01:07:33;12.20;;;4.88;;
21251;SDS011;10784;50.578;17.878;2023-01-09T01:10:16;11.55;;;5.25;;
21251;SDS011;10784;50.578;17.878;2023-01-09T01:12:51;9.73;;;5.60;;
21251;SDS011;10784;50.578;17.878;2023-01-09T01:15:24;11.95;;;3.90;;
21251;SDS011;10784;50.578;17.878;2023-01-09T01:18:00;11.20;;;5.07;;
21251;SDS011;10784;50.578;17.878;2023-01-09T01:20:36;13.27;;;5.97;;
21251;SDS011;10784;50.578;17.878;2023-01-09T01:23:11;19.52;;;6.88;;
21251;SDS011;10784;50.578;17.878;2023-01-09T01:25:44;11.23;;;5.70;;
21251;SDS011;10784;50.578;17.878;2023-01-09T01:28:16;10.35;;;5.70;;
21251;SDS011;10784;50.578;17.878;2023-01-09T01:30:50;18.40;;;6.65;;
21251;SDS011;10784;50.578;17.878;2023-01-09T01:33:23;16.92;;;5.75;;
21251;SDS011;10784;50.578;17.878;2023-01-09T01:36:03;17.80;;;6.57;;
21251;SDS011;10784;50.578;17.878;2023-01-09T01:38:36;16.77;;;6.28;;
21251;SDS011;10784;50.578;17.878;2023-01-09T01:41:09;14.65;;;5.93;;
21251;SDS011;10784;50.578;17.878;2023-01-09T01:43:53;21.08;;;6.07;;
21251;SDS011;10784;50.578;17.878;2023-01-09T01:46:26;12.10;;;5.20;;
21251;SDS011;10784;50.578;17.878;2023-01-09T01:49:06;17.65;;;5.22;;
21251;SDS011;10784;50.578;17.878;2023-01-09T01:51:43;16.90;;;4.95;;
21251;SDS011;10784;50.578;17.878;2023-01-09T01:54:19;19.38;;;7.00;;
21251;SDS011;10784;50.578;17.878;2023-01-09T01:56:55;19.52;;;6.07;;
21251;SDS011;10784;50.578;17.878;2023-01-09T01:59:36;20.52;;;7.20;;
21251;SDS011;10784;50.578;17.878;2023-01-09T02:02:10;12.40;;;6.22;;
21251;SDS011;10784;50.578;17.878;2023-01-09T02:04:43;16.02;;;7.10;;
21251;SDS011;10784;50.578;17.878;2023-01-09T02:07:17;17.80;;;6.15;;
21251;SDS011;10784;50.578;17.878;2023-01-09T02:09:49;17.40;;;6.40;;
21251;SDS011;10784;50.578;17.878;2023-01-09T02:12:24;24.73;;;7.50;;
21251;SDS011;10784;50.578;17.878;2023-01-09T02:15:02;16.98;;;6.00;;
21251;SDS011;10784;50.578;17.878;2023-01-09T02:20:25;11.90;;;5.22;;
21251;SDS011;10784;50.578;17.878;2023-01-09T02:31:06;14.07;;;6.10;;
21251;SDS011;10784;50.578;17.878;2023-01-09T02:36:37;19.77;;;6.97;;
21251;SDS011;10784;50.578;17.878;2023-01-09T02:41:51;17.10;;;5.85;;
21251;SDS011;10784;50.578;17.878;2023-01-09T02:44:26;15.75;;;6.03;;
21251;SDS011;10784;50.578;17.878;2023-01-09T02:46:59;14.75;;;5.97;;
21251;SDS011;10784;50.578;17.878;2023-01-09T02:49:33;13.15;;;6.28;;
21251;SDS011;10784;50.578;17.878;2023-01-09T03:08:47;19.13;;;7.43;;
21251;SDS011;10784;50.578;17.878;2023-01-09T03:11:20;20.40;;;8.55;;
21251;SDS011;10784;50.578;17.878;2023-01-09T03:13:54;13.18;;;5.68;;
21251;SDS011;10784;50.578;17.878;2023-01-09T03:16:28;16.95;;;6.75;;
21251;SDS011;10784;50.578;17.878;2023-01-09T03:19:03;14.27;;;7.45;;
21251;SDS011;10784;50.578;17.878;2023-01-09T03:21:37;15.90;;;6.43;;
21251;SDS011;10784;50.578;17.878;2023-01-09T03:24:09;16.27;;;7.45;;
21251;SDS011;10784;50.578;17.878;2023-01-09T03:26:42;19.52;;;6.28;;
21251;SDS011;10784;50.578;17.878;2023-01-09T03:29:15;18.23;;;6.85;;
21251;SDS011;10784;50.578;17.878;2023-01-09T03:31:48;10.52;;;6.72;;
21251;SDS011;10784;50.578;17.878;2023-01-09T03:34:21;15.20;;;6.35;;
21251;SDS011;10784;50.578;17.878;2023-01-09T03:36:54;19.85;;;6.80;;
21251;SDS011;10784;50.578;17.878;2023-01-09T03:39:26;19.15;;;7.07;;
21251;SDS011;10784;50.578;17.878;2023-01-09T03:41:59;13.60;;;6.18;;
21251;SDS011;10784;50.578;17.878;2023-01-09T03:44:32;15.93;;;8.05;;
21251;SDS011;10784;50.578;17.878;2023-01-09T03:47:05;18.92;;;7.82;;
21251;SDS011;10784;50.578;17.878;2023-01-09T03:49:37;17.52;;;7.10;;
21251;SDS011;10784;50.578;17.878;2023-01-09T03:52:10;15.95;;;6.95;;
21251;SDS011;10784;50.578;17.878;2023-01-09T03:54:45;21.05;;;7.32;;
21251;SDS011;10784;50.578;17.878;2023-01-09T03:57:18;14.93;;;6.05;;
21251;SDS011;10784;50.578;17.878;2023-01-09T03:59:50;17.25;;;7.22;;
21251;SDS011;10784;50.578;17.878;2023-01-09T04:02:23;19.33;;;7.75;;
21251;SDS011;10784;50.578;17.878;2023-01-09T04:04:56;22.33;;;6.65;;
21251;SDS011;10784;50.578;17.878;2023-01-09T04:07:29;17.67;;;7.15;;
21251;SDS011;10784;50.578;17.878;2023-01-09T04:10:01;16.15;;;6.30;;
21251;SDS011;10784;50.578;17.878;2023-01-09T04:12:34;27.50;;;7.47;;
21251;SDS011;10784;50.578;17.878;2023-01-09T04:15:07;14.82;;;6.72;;
21251;SDS011;10784;50.578;17.878;2023-01-09T04:17:40;19.58;;;6.70;;
21251;SDS011;10784;50.578;17.878;2023-01-09T04:20:13;18.65;;;7.72;;
21251;SDS011;10784;50.578;17.878;2023-01-09T04:22:46;20.23;;;7.80;;
21251;SDS011;10784;50.578;17.878;2023-01-09T04:25:18;14.85;;;6.35;;
21251;SDS011;10784;50.578;17.878;2023-01-09T04:27:51;19.02;;;8.93;;
21251;SDS011;10784;50.578;17.878;2023-01-09T04:30:24;18.67;;;8.52;;
21251;SDS011;10784;50.578;17.878;2023-01-09T04:32:57;16.33;;;6.95;;
21251;SDS011;10784;50.578;17.878;2023-01-09T04:35:30;21.85;;;8.75;;
21251;SDS011;10784;50.578;17.878;2023-01-09T04:38:02;20.65;;;8.27;;
21251;SDS011;10784;50.578;17.878;2023-01-09T04:40:36;19.65;;;8.07;;
21251;SDS011;10784;50.578;17.878;2023-01-09T04:43:09;20.42;;;8.30;;
21251;SDS011;10784;50.578;17.878;2023-01-09T04:45:41;23.70;;;8.02;;
21251;SDS011;10784;50.578;17.878;2023-01-09T04:48:14;18.30;;;7.13;;
21251;SDS011;10784;50.578;17.878;2023-01-09T04:50:47;17.98;;;8.13;;
21251;SDS011;10784;50.578;17.878;2023-01-09T04:53:20;21.58;;;7.03;;
21251;SDS011;10784;50.578;17.878;2023-01-09T04:55:53;17.38;;;7.07;;
21251;SDS011;10784;50.578;17.878;2023-01-09T04:58:26;21.23;;;9.32;;
21251;SDS011;10784;50.578;17.878;2023-01-09T05:00:58;16.83;;;7.68;;
21251;SDS011;10784;50.578;17.878;2023-01-09T05:03:32;19.63;;;7.68;;
21251;SDS011;10784;50.578;17.878;2023-01-09T05:06:04;18.38;;;8.07;;
21251;SDS011;10784;50.578;17.878;2023-01-09T05:08:37;21.23;;;9.02;;
21251;SDS011;10784;50.578;17.878;2023-01-09T05:11:10;14.50;;;6.85;;
21251;SDS011;10784;50.578;17.878;2023-01-09T05:13:43;19.88;;;8.48;;
21251;SDS011;10784;50.578;17.878;2023-01-09T05:16:16;18.00;;;7.90;;
21251;SDS011;10784;50.578;17.878;2023-01-09T05:18:49;23.77;;;9.27;;
21251;SDS011;10784;50.578;17.878;2023-01-09T05:21:23;31.58;;;9.48;;
21251;SDS011;10784;50.578;17.878;2023-01-09T05:23:56;26.75;;;10.32;;
21251;SDS011;10784;50.578;17.878;2023-01-09T05:26:28;29.48;;;9.45;;
21251;SDS011;10784;50.578;17.878;2023-01-09T05:29:01;20.85;;;10.25;;
21251;SDS011;10784;50.578;17.878;2023-01-09T05:31:34;20.25;;;7.30;;
21251;SDS011;10784;50.578;17.878;2023-01-09T05:34:07;21.48;;;7.50;;
21251;SDS011;10784;50.578;17.878;2023-01-09T05:36:40;31.27;;;12.45;;
21251;SDS011;10784;50.578;17.878;2023-01-09T05:39:13;22.80;;;10.38;;
21251;SDS011;10784;50.578;17.878;2023-01-09T05:41:45;31.52;;;11.32;;
21251;SDS011;10784;50.578;17.878;2023-01-09T05:44:19;20.60;;;9.93;;
21251;SDS011;10784;50.578;17.878;2023-01-09T05:46:52;21.55;;;9.13;;
21251;SDS011;10784;50.578;17.878;2023-01-09T05:49:25;17.25;;;8.30;;
21251;SDS011;10784;50.578;17.878;2023-01-09T05:51:58;24.85;;;8.52;;
21251;SDS011;10784;50.578;17.878;2023-01-09T05:54:31;18.92;;;9.05;;
21251;SDS011;10784;50.578;17.878;2023-01-09T05:57:03;24.00;;;9.15;;
21251;SDS011;10784;50.578;17.878;2023-01-09T05:59:37;24.73;;;7.97;;
21251;SDS011;10784;50.578;17.878;2023-01-09T06:02:09;14.68;;;6.22;;
21251;SDS011;10784;50.578;17.878;2023-01-09T06:04:42;18.17;;;7.55;;
21251;SDS011;10784;50.578;17.878;2023-01-09T06:07:15;18.05;;;7.05;;
21251;SDS011;10784;50.578;17.878;2023-01-09T06:09:53;19.10;;;6.43;;
21251;SDS011;10784;50.578;17.878;2023-01-09T06:12:25;17.35;;;7.65;;
21251;SDS011;10784;50.578;17.878;2023-01-09T06:14:58;18.40;;;7.70;;
21251;SDS011;10784;50.578;17.878;2023-01-09T06:17:31;16.02;;;7.15;;
21251;SDS011;10784;50.578;17.878;2023-01-09T06:20:04;16.52;;;6.28;;
21251;SDS011;10784;50.578;17.878;2023-01-09T06:22:37;16.67;;;6.50;;
21251;SDS011;10784;50.578;17.878;2023-01-09T06:25:10;21.75;;;8.00;;
21251;SDS011;10784;50.578;17.878;2023-01-09T06:27:43;18.98;;;7.00;;
21251;SDS011;10784;50.578;17.878;2023-01-09T06:30:17;17.27;;;8.05;;
21251;SDS011;10784;50.578;17.878;2023-01-09T06:32:50;28.48;;;9.20;;
21251;SDS011;10784;50.578;17.878;2023-01-09T06:35:23;23.33;;;8.82;;
21251;SDS011;10784;50.578;17.878;2023-01-09T06:37:55;22.13;;;8.20;;
21251;SDS011;10784;50.578;17.878;2023-01-09T06:40:28;20.73;;;8.75;;
21251;SDS011;10784;50.578;17.878;2023-01-09T06:43:01;22.20;;;8.80;;
21251;SDS011;10784;50.578;17.878;2023-01-09T06:45:34;20.83;;;8.57;;
21251;SDS011;10784;50.578;17.878;2023-01-09T06:48:07;18.45;;;7.68;;
21251;SDS011;10784;50.578;17.878;2023-01-09T06:50:40;17.92;;;7.68;;
21251;SDS011;10784;50.578;17.878;2023-01-09T06:53:12;18.25;;;8.43;;
21251;SDS011;10784;50.578;17.878;2023-01-09T06:55:46;18.33;;;8.05;;
21251;SDS011;10784;50.578;17.878;2023-01-09T06:58:18;27.13;;;10.02;;
21251;SDS011;10784;50.578;17.878;2023-01-09T07:00:52;23.13;;;8.48;;
21251;SDS011;10784;50.578;17.878;2023-01-09T07:03:26;16.17;;;7.50;;
21251;SDS011;10784;50.578;17.878;2023-01-09T07:05:59;16.08;;;7.07;;
21251;SDS011;10784;50.578;17.878;2023-01-09T07:08:32;21.63;;;8.80;;
21251;SDS011;10784;50.578;17.878;2023-01-09T07:11:06;19.85;;;7.70;;
21251;SDS011;10784;50.578;17.878;2023-01-09T07:13:38;24.17;;;7.72;;
21251;SDS011;10784;50.578;17.878;2023-01-09T07:16:11;14.70;;;7.32;;
21251;SDS011;10784;50.578;17.878;2023-01-09T07:18:44;15.20;;;8.40;;
21251;SDS011;10784;50.578;17.878;2023-01-09T07:21:17;15.90;;;7.82;;
21251;SDS011;10784;50.578;17.878;2023-01-09T07:23:49;20.17;;;8.48;;
21251;SDS011;10784;50.578;17.878;2023-01-09T07:26:23;16.88;;;8.55;;
21251;SDS011;10784;50.578;17.878;2023-01-09T07:28:55;26.48;;;8.48;;
21251;SDS011;10784;50.578;17.878;2023-01-09T07:31:28;25.23;;;9.43;;
21251;SDS011;10784;50.578;17.878;2023-01-09T07:34:01;19.88;;;7.75;;
21251;SDS011;10784;50.578;17.878;2023-01-09T07:36:34;23.92;;;8.90;;
21251;SDS011;10784;50.578;17.878;2023-01-09T07:39:06;16.58;;;8.15;;
21251;SDS011;10784;50.578;17.878;2023-01-09T07:41:40;21.15;;;7.47;;
21251;SDS011;10784;50.578;17.878;2023-01-09T07:44:14;15.13;;;6.80;;
21251;SDS011;10784;50.578;17.878;2023-01-09T07:46:47;13.85;;;7.15;;
21251;SDS011;10784;50.578;17.878;2023-01-09T07:49:20;19.50;;;8.05;;
21251;SDS011;10784;50.578;17.878;2023-01-09T07:51:53;19.80;;;7.60;;
21251;SDS011;10784;50.578;17.878;2023-01-09T07:54:26;17.58;;;8.85;;
21251;SDS011;10784;50.578;17.878;2023-01-09T07:56:59;24.85;;;9.00;;
21251;SDS011;10784;50.578;17.878;2023-01-09T07:59:31;21.10;;;9.48;;
21251;SDS011;10784;50.578;17.878;2023-01-09T08:02:04;19.90;;;7.93;;
21251;SDS011;10784;50.578;17.878;2023-01-09T08:04:38;15.07;;;8.20;;
21251;SDS011;10784;50.578;17.878;2023-01-09T08:07:11;24.42;;;10.27;;
21251;SDS011;10784;50.578;17.878;2023-01-09T08:09:44;40.55;;;15.30;;
21251;SDS011;10784;50.578;17.878;2023-01-09T08:12:16;25.27;;;11.45;;
21251;SDS011;10784;50.578;17.878;2023-01-09T08:14:49;38.08;;;12.38;;
21251;SDS011;10784;50.578;17.878;2023-01-09T08:17:22;23.42;;;10.25;;
21251;SDS011;10784;50.578;17.878;2023-01-09T08:19:57;31.83;;;11.68;;
21251;SDS011;10784;50.578;17.878;2023-01-09T08:22:30;33.70;;;11.73;;
21251;SDS011;10784;50.578;17.878;2023-01-09T08:25:03;44.55;;;14.98;;
21251;SDS011;10784;50.578;17.878;2023-01-09T08:27:36;39.28;;;13.75;;
21251;SDS011;10784;50.578;17.878;2023-01-09T08:30:09;33.25;;;12.77;;
21251;SDS011;10784;50.578;17.878;2023-01-09T08:32:47;22.40;;;10.18;;
21251;SDS011;10784;50.578;17.878;2023-01-09T08:35:20;28.08;;;10.18;;
21251;SDS011;10784;50.578;17.878;2023-01-09T08:37:53;29.55;;;11.82;;
21251;SDS011;10784;50.578;17.878;2023-01-09T08:40:26;33.42;;;11.00;;
21251;SDS011;10784;50.578;17.878;2023-01-09T08:42:58;51.13;;;18.58;;
21251;SDS011;10784;50.578;17.878;2023-01-09T08:45:50;53.30;;;17.48;;
21251;SDS011;10784;50.578;17.878;2023-01-09T08:48:41;22.07;;;9.60;;
21251;SDS011;10784;50.578;17.878;2023-01-09T08:51:15;21.40;;;9.75;;
21251;SDS011;10784;50.578;17.878;2023-01-09T08:53:47;13.18;;;7.93;;
21251;SDS011;10784;50.578;17.878;2023-01-09T08:56:20;15.32;;;7.47;;
21251;SDS011;10784;50.578;17.878;2023-01-09T08:58:53;15.55;;;6.05;;
21251;SDS011;10784;50.578;17.878;2023-01-09T09:01:26;12.23;;;6.38;;
21251;SDS011;10784;50.578;17.878;2023-01-09T09:03:59;12.32;;;6.13;;
21251;SDS011;10784;50.578;17.878;2023-01-09T09:06:32;19.25;;;6.60;;
21251;SDS011;10784;50.578;17.878;2023-01-09T09:09:05;14.88;;;6.43;;
21251;SDS011;10784;50.578;17.878;2023-01-09T09:11:38;16.38;;;6.05;;
21251;SDS011;10784;50.578;17.878;2023-01-09T09:14:11;16.02;;;6.65;;
21251;SDS011;10784;50.578;17.878;2023-01-09T09:17:03;16.52;;;7.07;;
21251;SDS011;10784;50.578;17.878;2023-01-09T09:19:35;25.20;;;10.30;;
21251;SDS011;10784;50.578;17.878;2023-01-09T09:22:08;13.15;;;6.18;;
21251;SDS011;10784;50.578;17.878;2023-01-09T09:24:41;15.60;;;7.18;;
21251;SDS011;10784;50.578;17.878;2023-01-09T09:27:14;22.65;;;8.27;;
21251;SDS011;10784;50.578;17.878;2023-01-09T09:29:46;14.80;;;4.85;;
21251;SDS011;10784;50.578;17.878;2023-01-09T09:32:19;9.85;;;4.22;;
21251;SDS011;10784;50.578;17.878;2023-01-09T09:34:52;21.35;;;6.65;;
21251;SDS011;10784;50.578;17.878;2023-01-09T09:37:25;46.13;;;17.65;;
21251;SDS011;10784;50.578;17.878;2023-01-09T09:39:58;22.08;;;8.80;;
21251;SDS011;10784;50.578;17.878;2023-01-09T09:42:57;11.95;;;6.15;;
21251;SDS011;10784;50.578;17.878;2023-01-09T09:45:55;15.60;;;5.90;;
21251;SDS011;10784;50.578;17.878;2023-01-09T09:48:37;18.90;;;6.95;;
21251;SDS011;10784;50.578;17.878;2023-01-09T09:56:45;11.93;;;5.63;;
21251;SDS011;10784;50.578;17.878;2023-01-09T09:59:23;9.05;;;5.93;;
21251;SDS011;10784;50.578;17.878;2023-01-09T10:01:59;7.85;;;5.10;;
21251;SDS011;10784;50.578;17.878;2023-01-09T10:04:35;9.80;;;3.30;;
21251;SDS011;10784;50.578;17.878;2023-01-09T10:07:12;3.83;;;2.03;;
21251;SDS011;10784;50.578;17.878;2023-01-09T10:09:51;8.02;;;4.78;;
21251;SDS011;10784;50.578;17.878;2023-01-09T10:12:29;15.48;;;6.45;;
21251;SDS011;10784;50.578;17.878;2023-01-09T10:15:17;8.25;;;4.82;;
21251;SDS011;10784;50.578;17.878;2023-01-09T10:30:58;4.63;;;2.33;;
21251;SDS011;10784;50.578;17.878;2023-01-09T10:33:39;4.28;;;2.00;;
21251;SDS011;10784;50.578;17.878;2023-01-09T10:38:50;7.32;;;2.00;;
21251;SDS011;10784;50.578;17.878;2023-01-09T10:41:28;2.53;;;1.83;;
21251;SDS011;10784;50.578;17.878;2023-01-09T10:46:40;3.42;;;2.03;;
21251;SDS011;10784;50.578;17.878;2023-01-09T10:49:15;5.10;;;2.70;;
21251;SDS011;10784;50.578;17.878;2023-01-09T10:52:10;2.70;;;1.85;;
21251;SDS011;10784;50.578;17.878;2023-01-09T10:54:54;4.80;;;1.77;;
21251;SDS011;10784;50.578;17.878;2023-01-09T11:00:03;2.80;;;1.63;;
21251;SDS011;10784;50.578;17.878;2023-01-09T11:02:36;4.40;;;1.90;;
21251;SDS011;10784;50.578;17.878;2023-01-09T11:05:24;3.53;;;1.55;;
21251;SDS011;10784;50.578;17.878;2023-01-09T11:10:44;4.03;;;2.28;;
21251;SDS011;10784;50.578;17.878;2023-01-09T11:16:01;5.32;;;2.60;;
21251;SDS011;10784;50.578;17.878;2023-01-09T11:18:37;5.18;;;2.40;;
21251;SDS011;10784;50.578;17.878;2023-01-09T11:21:12;4.88;;;2.25;;
21251;SDS011;10784;50.578;17.878;2023-01-09T11:23:45;7.07;;;3.30;;
21251;SDS011;10784;50.578;17.878;2023-01-09T11:26:27;6.85;;;2.58;;
21251;SDS011;10784;50.578;17.878;2023-01-09T11:29:04;5.15;;;2.35;;
21251;SDS011;10784;50.578;17.878;2023-01-09T11:31:36;7.93;;;2.38;;
21251;SDS011;10784;50.578;17.878;2023-01-09T11:34:16;4.20;;;2.40;;
21251;SDS011;10784;50.578;17.878;2023-01-09T11:36:51;5.93;;;2.95;;
21251;SDS011;10784;50.578;17.878;2023-01-09T11:39:25;6.90;;;2.88;;
21251;SDS011;10784;50.578;17.878;2023-01-09T11:42:02;10.30;;;3.90;;
21251;SDS011;10784;50.578;17.878;2023-01-09T11:44:37;6.07;;;2.22;;
21251;SDS011;10784;50.578;17.878;2023-01-09T11:47:34;8.38;;;2.70;;
21251;SDS011;10784;50.578;17.878;2023-01-09T11:53:06;6.20;;;2.97;;
21251;SDS011;10784;50.578;17.878;2023-01-09T11:55:40;7.18;;;3.63;;
21251;SDS011;10784;50.578;17.878;2023-01-09T11:58:18;6.28;;;2.47;;
21251;SDS011;10784;50.578;17.878;2023-01-09T12:03:34;6.50;;;2.58;;
21251;SDS011;10784;50.578;17.878;2023-01-09T12:06:14;8.85;;;3.63;;
21251;SDS011;10784;50.578;17.878;2023-01-09T12:14:31;13.75;;;4.45;;
21251;SDS011;10784;50.578;17.878;2023-01-09T12:17:28;6.60;;;3.03;;
21251;SDS011;10784;50.578;17.878;2023-01-09T12:20:16;11.55;;;3.33;;
21251;SDS011;10784;50.578;17.878;2023-01-09T12:25:47;3.93;;;1.93;;
21251;SDS011;10784;50.578;17.878;2023-01-09T12:28:29;7.65;;;2.65;;
21251;SDS011;10784;50.578;17.878;2023-01-09T12:33:48;4.15;;;2.53;;
21251;SDS011;10784;50.578;17.878;2023-01-09T12:36:35;3.67;;;2.00;;
21251;SDS011;10784;50.578;17.878;2023-01-09T12:39:24;5.68;;;2.38;;
21251;SDS011;10784;50.578;17.878;2023-01-09T12:47:30;5.30;;;2.53;;
21251;SDS011;10784;50.578;17.878;2023-01-09T12:52:47;7.18;;;2.20;;
21251;SDS011;10784;50.578;17.878;2023-01-09T12:55:21;5.18;;;2.28;;
21251;SDS011;10784;50.578;17.878;2023-01-09T12:57:56;5.38;;;2.17;;
21251;SDS011;10784;50.578;17.878;2023-01-09T13:00:31;6.03;;;2.38;;
21251;SDS011;10784;50.578;17.878;2023-01-09T13:03:20;4.38;;;2.28;;
21251;SDS011;10784;50.578;17.878;2023-01-09T13:05:55;3.72;;;2.15;;
21251;SDS011;10784;50.578;17.878;2023-01-09T13:08:29;6.45;;;3.42;;
21251;SDS011;10784;50.578;17.878;2023-01-09T13:11:11;4.47;;;2.47;;
21251;SDS011;10784;50.578;17.878;2023-01-09T13:16:26;6.63;;;2.85;;
21251;SDS011;10784;50.578;17.878;2023-01-09T13:19:11;5.65;;;2.35;;
21251;SDS011;10784;50.578;17.878;2023-01-09T13:21:46;5.30;;;2.30;;
21251;SDS011;10784;50.578;17.878;2023-01-09T13:24:44;6.85;;;3.03;;
21251;SDS011;10784;50.578;17.878;2023-01-09T13:27:22;4.93;;;2.50;;
21251;SDS011;10784;50.578;17.878;2023-01-09T13:30:04;7.25;;;2.65;;
21251;SDS011;10784;50.578;17.878;2023-01-09T13:35:29;7.72;;;4.15;;
21251;SDS011;10784;50.578;17.878;2023-01-09T13:38:02;8.52;;;3.85;;
21251;SDS011;10784;50.578;17.878;2023-01-09T13:40:35;13.05;;;6.50;;
21251;SDS011;10784;50.578;17.878;2023-01-09T13:43:09;4.20;;;2.10;;
21251;SDS011;10784;50.578;17.878;2023-01-09T13:45:42;5.03;;;2.80;;
21251;SDS011;10784;50.578;17.878;2023-01-09T13:48:21;7.10;;;2.40;;
21251;SDS011;10784;50.578;17.878;2023-01-09T13:51:34;4.38;;;2.25;;
21251;SDS011;10784;50.578;17.878;2023-01-09T13:53:48;4.53;;;2.35;;
21251;SDS011;10784;50.578;17.878;2023-01-09T13:56:20;2.83;;;1.95;;
21251;SDS011;10784;50.578;17.878;2023-01-09T13:58:56;4.20;;;2.13;;
21251;SDS011;10784;50.578;17.878;2023-01-09T14:07:28;5.22;;;3.33;;
21251;SDS011;10784;50.578;17.878;2023-01-09T14:09:55;17.63;;;6.43;;
21251;SDS011;10784;50.578;17.878;2023-01-09T14:12:29;14.20;;;5.60;;
21251;SDS011;10784;50.578;17.878;2023-01-09T14:15:03;11.88;;;5.45;;
21251;SDS011;10784;50.578;17.878;2023-01-09T14:17:36;14.13;;;5.00;;
21251;SDS011;10784;50.578;17.878;2023-01-09T14:20:22;14.20;;;6.28;;
21251;SDS011;10784;50.578;17.878;2023-01-09T14:22:55;29.00;;;11.60;;
21251;SDS011;10784;50.578;17.878;2023-01-09T14:25:50;35.50;;;14.10;;
21251;SDS011;10784;50.578;17.878;2023-01-09T14:28:26;16.15;;;7.20;;
21251;SDS011;10784;50.578;17.878;2023-01-09T14:31:01;47.33;;;17.48;;
21251;SDS011;10784;50.578;17.878;2023-01-09T14:33:34;106.32;;;37.90;;
21251;SDS011;10784;50.578;17.878;2023-01-09T14:36:20;28.83;;;11.45;;
21251;SDS011;10784;50.578;17.878;2023-01-09T14:38:53;26.08;;;11.18;;
21251;SDS011;10784;50.578;17.878;2023-01-09T14:44:52;20.17;;;7.68;;
21251;SDS011;10784;50.578;17.878;2023-01-09T14:50:24;18.35;;;8.85;;
21251;SDS011;10784;50.578;17.878;2023-01-09T14:53:03;19.77;;;8.23;;
21251;SDS011;10784;50.578;17.878;2023-01-09T15:01:11;13.70;;;5.43;;
21251;SDS011;10784;50.578;17.878;2023-01-09T15:06:24;9.95;;;4.82;;
21251;SDS011;10784;50.578;17.878;2023-01-09T15:09:02;6.53;;;3.30;;
21251;SDS011;10784;50.578;17.878;2023-01-09T15:11:36;6.93;;;4.13;;
21251;SDS011;10784;50.578;17.878;2023-01-09T15:14:13;7.85;;;4.05;;
21251;SDS011;10784;50.578;17.878;2023-01-09T15:16:49;11.15;;;5.40;;
21251;SDS011;10784;50.578;17.878;2023-01-09T15:19:22;11.70;;;5.10;;
21251;SDS011;10784;50.578;17.878;2023-01-09T15:21:56;9.68;;;5.22;;
21251;SDS011;10784;50.578;17.878;2023-01-09T15:24:30;20.85;;;8.55;;
21251;SDS011;10784;50.578;17.878;2023-01-09T15:27:11;18.60;;;7.18;;
21251;SDS011;10784;50.578;17.878;2023-01-09T15:29:44;12.30;;;6.03;;
21251;SDS011;10784;50.578;17.878;2023-01-09T15:34:53;20.80;;;8.70;;
21251;SDS011;10784;50.578;17.878;2023-01-09T15:40:00;40.85;;;15.70;;
21251;SDS011;10784;50.578;17.878;2023-01-09T15:42:34;24.10;;;11.20;;
21251;SDS011;10784;50.578;17.878;2023-01-09T15:45:38;15.38;;;8.63;;
21251;SDS011;10784;50.578;17.878;2023-01-09T15:48:13;13.43;;;6.88;;
21251;SDS011;10784;50.578;17.878;2023-01-09T15:50:46;18.08;;;5.88;;
21251;SDS011;10784;50.578;17.878;2023-01-09T15:53:21;17.08;;;5.45;;
21251;SDS011;10784;50.578;17.878;2023-01-09T15:56:04;8.23;;;4.70;;
21251;SDS011;10784;50.578;17.878;2023-01-09T15:58:41;14.98;;;5.28;;
21251;SDS011;10784;50.578;17.878;2023-01-09T16:04:13;20.77;;;9.45;;
21251;SDS011;10784;50.578;17.878;2023-01-09T16:06:50;17.95;;;8.00;;
21251;SDS011;10784;50.578;17.878;2023-01-09T16:09:27;13.95;;;4.60;;
21251;SDS011;10784;50.578;17.878;2023-01-09T16:12:01;13.95;;;7.18;;
21251;SDS011;10784;50.578;17.878;2023-01-09T16:14:37;17.55;;;8.50;;
21251;SDS011;10784;50.578;17.878;2023-01-09T16:17:16;26.75;;;11.20;;
21251;SDS011;10784;50.578;17.878;2023-01-09T16:19:53;26.75;;;11.85;;
21251;SDS011;10784;50.578;17.878;2023-01-09T16:22:30;21.10;;;7.63;;
21251;SDS011;10784;50.578;17.878;2023-01-09T16:25:48;28.95;;;11.02;;
21251;SDS011;10784;50.578;17.878;2023-01-09T16:33:31;36.88;;;13.18;;
21251;SDS011;10784;50.578;17.878;2023-01-09T16:36:05;47.80;;;17.25;;
21251;SDS011;10784;50.578;17.878;2023-01-09T16:38:40;18.27;;;8.43;;
21251;SDS011;10784;50.578;17.878;2023-01-09T16:41:14;18.70;;;6.65;;
21251;SDS011;10784;50.578;17.878;2023-01-09T16:44:07;19.02;;;7.80;;
21251;SDS011;10784;50.578;17.878;2023-01-09T16:46:42;18.63;;;7.55;;
21251;SDS011;10784;50.578;17.878;2023-01-09T16:49:22;16.80;;;8.63;;
21251;SDS011;10784;50.578;17.878;2023-01-09T16:51:55;9.57;;;5.68;;
21251;SDS011;10784;50.578;17.878;2023-01-09T16:54:28;17.08;;;9.43;;
21251;SDS011;10784;50.578;17.878;2023-01-09T16:57:01;25.75;;;10.68;;
21251;SDS011;10784;50.578;17.878;2023-01-09T16:59:35;16.58;;;8.13;;
21251;SDS011;10784;50.578;17.878;2023-01-09T17:02:15;20.50;;;9.82;;
21251;SDS011;10784;50.578;17.878;2023-01-09T17:04:49;15.80;;;5.32;;
21251;SDS011;10784;50.578;17.878;2023-01-09T17:07:22;13.20;;;6.80;;
21251;SDS011;10784;50.578;17.878;2023-01-09T17:09:58;10.05;;;4.80;;
21251;SDS011;10784;50.578;17.878;2023-01-09T17:12:32;9.85;;;4.80;;
21251;SDS011;10784;50.578;17.878;2023-01-09T17:15:05;10.75;;;5.78;;
21251;SDS011;10784;50.578;17.878;2023-01-09T17:17:38;12.60;;;5.97;;
21251;SDS011;10784;50.578;17.878;2023-01-09T17:20:15;10.02;;;5.32;;
21251;SDS011;10784;50.578;17.878;2023-01-09T17:22:47;7.90;;;4.32;;
21251;SDS011;10784;50.578;17.878;2023-01-09T17:25:20;9.82;;;4.32;;